Time;durP1;ratioP1;P1;durP2;ratioP2;P2;SDS_P1;SDS_P2;PMS_P1;PMS_P2;Temp;Humidity;BMP_temperature;BMP_pressure;BME280_temperature;BME280_humidity;BME280_pressure;Samples;Min_cycle;Max_cycle;Signal;HPM_P1;HPM_P2
2021/12/16 00:02:56;;;;;;;157.18;90.62;;;;;;;-0.18;78.52;95527.64;1693840;83;21062;-58
2021/12/16 00:05:25;;;;;;;167.35;97.27;;;;;;;-0.17;78.81;95527.30;1691346;83;21065;-58
2021/12/16 00:07:53;;;;;;;164.20;95.00;;;;;;;-0.12;78.98;95522.13;1692387;83;21480;-57
2021/12/16 00:10:22;;;;;;;169.40;94.92;;;;;;;-0.10;78.76;95527.96;1677029;84;21045;-57
2021/12/16 00:31:59;;;;;;;160.80;92.82;;;;;;;-0.65;77.98;95527.14;1679355;84;20984;-58
2021/12/16 00:34:29;;;;;;;150.90;83.20;;;;;;;-0.80;78.45;95542.87;1666473;83;21543;-56
2021/12/16 00:36:56;;;;;;;159.55;88.87;;;;;;;-0.84;78.55;95540.66;1672257;84;21614;-59
2021/12/16 00:39:32;;;;;;;156.45;89.17;;;;;;;-0.89;78.63;95535.54;1674359;84;21106;-57
2021/12/16 00:42:06;;;;;;;158.10;89.65;;;;;;;-0.94;78.68;95535.83;1648253;85;21146;-57
2021/12/16 00:49:35;;;;;;;150.90;86.78;;;;;;;-0.95;78.76;95523.47;1672253;83;21471;-60
2021/12/16 00:54:42;;;;;;;160.05;86.15;;;;;;;-0.86;79.05;95521.33;1655462;85;21082;-58
2021/12/16 00:57:13;;;;;;;156.85;86.50;;;;;;;-0.87;79.07;95517.06;1671229;84;20975;-57
2021/12/16 00:59:43;;;;;;;157.18;92.42;;;;;;;-0.78;79.56;95521.69;1666588;85;21080;-60
2021/12/16 01:05:32;;;;;;;177.35;97.88;;;;;;;-0.56;78.92;95512.27;1663707;84;21175;-57
2021/12/16 01:42:03;;;;;;;161.73;88.10;;;;;;;-1.48;78.59;95482.44;1709718;82;20998;-56
2021/12/16 01:47:00;;;;;;;180.03;96.65;;;;;;;-1.29;79.23;95484.57;1704914;83;22176;-57
2021/12/16 01:52:04;;;;;;;171.72;94.22;;;;;;;-1.29;78.21;95479.76;1707907;83;21017;-58
2021/12/16 01:57:06;;;;;;;163.12;89.37;;;;;;;-1.36;78.14;95483.67;1708381;83;21062;-57
2021/12/16 01:59:35;;;;;;;164.82;89.15;;;;;;;-1.31;78.05;95491.48;1705665;83;21819;-57
2021/12/16 02:02:10;;;;;;;142.75;78.90;;;;;;;-1.34;77.46;95492.19;1701300;83;21196;-57
2021/12/16 02:04:40;;;;;;;140.60;80.50;;;;;;;-1.47;77.69;95496.14;1694942;83;21017;-58
2021/12/16 02:07:11;;;;;;;168.43;89.97;;;;;;;-1.49;77.81;95494.36;1681981;83;20996;-57
2021/12/16 02:09:37;;;;;;;134.70;78.00;;;;;;;-1.57;77.47;95490.72;1693609;83;21029;-56
2021/12/16 02:36:41;;;;;;;182.60;97.02;;;;;;;-1.48;77.33;95495.92;1686751;84;21540;-57
2021/12/16 02:39:19;;;;;;;163.50;92.80;;;;;;;-1.44;77.68;95498.13;1689499;85;21076;-57
2021/12/16 02:41:48;;;;;;;159.75;83.90;;;;;;;-1.40;77.44;95501.12;1683836;83;20994;-57
2021/12/16 02:44:28;;;;;;;197.87;101.97;;;;;;;-1.39;76.94;95505.94;1689819;85;20983;-58
2021/12/16 02:49:44;;;;;;;163.05;85.72;;;;;;;-1.68;76.39;95517.25;1689810;85;21070;-59
2021/12/16 02:52:11;;;;;;;184.18;97.78;;;;;;;-1.75;76.45;95515.72;1689245;85;21175;-61
2021/12/16 02:54:39;;;;;;;195.30;104.63;;;;;;;-1.81;76.62;95515.02;1689594;85;20975;-58
2021/12/16 02:57:09;;;;;;;202.80;109.00;;;;;;;-1.85;76.54;95512.23;1689751;85;21001;-57
2021/12/16 02:59:38;;;;;;;195.07;103.32;;;;;;;-1.90;76.50;95510.36;1690045;85;20968;-58
2021/12/16 03:02:11;;;;;;;205.92;109.55;;;;;;;-1.93;76.55;95517.22;1689729;85;21105;-56
2021/12/16 03:04:44;;;;;;;182.40;100.42;;;;;;;-2.04;76.26;95516.20;1691448;83;21534;-58
2021/12/16 03:07:13;;;;;;;201.25;107.52;;;;;;;-2.13;76.45;95516.92;1667983;83;20988;-57
2021/12/16 03:14:49;;;;;;;172.28;91.17;;;;;;;-2.32;77.30;95516.83;1683094;83;21020;-59
2021/12/16 03:17:22;;;;;;;192.20;99.25;;;;;;;-2.28;76.80;95521.77;1680329;83;21253;-58
2021/12/16 03:19:57;;;;;;;180.75;92.02;;;;;;;-2.39;76.32;95515.31;1681526;83;21511;-57
2021/12/16 03:22:25;;;;;;;183.40;98.55;;;;;;;-2.59;76.04;95518.23;1689461;83;20980;-57
2021/12/16 03:38:00;;;;;;;378.67;172.87;;;;;;;-3.08;76.17;95509.59;1677890;83;21063;-57
2021/12/16 03:40:27;;;;;;;223.93;113.40;;;;;;;-3.17;76.26;95507.62;1634785;86;21545;-57
2021/12/16 03:43:03;;;;;;;171.72;93.35;;;;;;;-3.26;76.37;95505.63;1660798;85;21153;-57
2021/12/16 03:49:00;;;;;;;153.42;85.70;;;;;;;-3.46;76.60;95490.45;1652865;85;20990;-56
2021/12/16 03:51:50;;;;;;;149.87;86.17;;;;;;;-3.56;76.67;95484.77;1663905;84;20994;-56
2021/12/16 03:54:26;;;;;;;153.38;87.37;;;;;;;-3.51;77.17;95497.96;1632527;85;21062;-57
2021/12/16 03:56:55;;;;;;;147.57;86.65;;;;;;;-3.44;77.28;95477.44;1652857;85;21455;-58
2021/12/16 03:59:29;;;;;;;161.77;89.47;;;;;;;-3.27;77.62;95487.16;1659138;83;21001;-56
2021/12/16 04:02:14;;;;;;;192.25;105.85;;;;;;;-3.12;77.19;95475.09;1655168;85;21092;-58
2021/12/16 04:04:45;;;;;;;189.15;101.05;;;;;;;-3.09;76.69;95482.47;1689872;83;21044;-68
2021/12/16 04:07:14;;;;;;;134.45;75.78;;;;;;;-3.04;76.53;95484.14;1650248;85;21101;-58
2021/12/16 04:10:00;;;;;;;143.05;80.20;;;;;;;-3.06;76.25;95477.75;1668166;84;21162;-57
2021/12/16 04:12:28;;;;;;;143.93;83.55;;;;;;;-3.12;76.19;95478.33;1670533;84;21511;-57
2021/12/16 04:14:59;;;;;;;142.15;83.25;;;;;;;-3.12;76.44;95492.58;1664267;85;21435;-56
2021/12/16 04:17:29;;;;;;;;;;;;;;;-3.07;76.32;95503.67;1656153;86;21102;-59
2021/12/16 04:19:59;;;;;;;146.93;84.90;;;;;;;-2.93;76.38;95503.48;1641797;85;20152;-57
2021/12/16 04:22:33;;;;;;;148.50;85.38;;;;;;;-2.83;75.70;95502.20;1671230;83;21178;-57
2021/12/16 04:25:07;;;;;;;154.55;87.37;;;;;;;-2.82;75.17;95500.53;1666111;84;21494;-58
2021/12/16 04:27:34;;;;;;;;;;;;;;;-2.88;75.26;95503.23;1671662;84;21024;-58
2021/12/16 04:30:03;;;;;;;173.65;91.28;;;;;;;-2.83;75.09;95499.52;1660203;84;20551;-56
2021/12/16 04:32:31;;;;;;;152.85;91.57;;;;;;;-2.85;74.72;95493.70;1655924;84;21458;-56
2021/12/16 04:34:58;;;;;;;252.47;119.72;;;;;;;-2.90;74.64;95502.03;1662786;83;21178;-66
2021/12/16 04:37:25;;;;;;;327.40;143.47;;;;;;;-2.92;74.53;95496.98;1676013;84;20982;-55
2021/12/16 04:39:55;;;;;;;325.80;145.12;;;;;;;-2.98;74.18;95491.63;1707907;83;21002;-57
2021/12/16 04:42:25;;;;;;;250.68;123.65;;;;;;;-3.04;74.19;95488.95;1673842;84;21018;-57
2021/12/16 04:44:53;;;;;;;285.30;130.40;;;;;;;-2.92;74.74;95492.94;1698773;83;20998;-57
2021/12/16 04:47:21;;;;;;;384.65;151.25;;;;;;;-2.82;74.10;95494.34;1704691;83;21091;-59
2021/12/16 04:49:50;;;;;;;409.15;144.13;;;;;;;-2.97;73.80;95490.50;1668707;84;20971;-57
2021/12/16 04:52:18;;;;;;;273.18;112.85;;;;;;;-3.10;73.95;95479.56;1694789;83;21014;-56
2021/12/16 04:54:45;;;;;;;324.20;127.25;;;;;;;-3.23;73.87;95490.14;1701169;83;21022;-57
2021/12/16 04:57:13;;;;;;;202.18;103.72;;;;;;;-3.28;74.25;95488.28;1699112;83;20993;-59
2021/12/16 04:59:42;;;;;;;188.18;95.20;;;;;;;-3.26;74.18;95497.56;1700079;83;21137;-57
2021/12/16 05:02:14;;;;;;;211.62;101.38;;;;;;;-3.20;74.24;95493.48;1669648;83;20955;-57
2021/12/16 05:04:55;;;;;;;200.82;100.45;;;;;;;-3.13;73.83;95487.53;1695861;83;21113;-62
2021/12/16 05:07:22;;;;;;;224.85;107.30;;;;;;;-3.08;73.71;95481.34;1687174;83;21538;-57
2021/12/16 05:12:23;;;;;;;221.65;104.12;;;;;;;-3.03;73.25;95487.81;1689808;85;21234;-57
2021/12/16 05:14:51;;;;;;;231.70;108.67;;;;;;;-3.03;73.20;95482.44;1667910;85;21557;-58
2021/12/16 05:19:52;;;;;;;184.93;94.07;;;;;;;-2.90;73.15;95485.88;1689625;85;21007;-57
2021/12/16 05:25:14;;;;;;;185.60;98.45;;;;;;;-2.73;73.13;95490.38;1687841;85;21184;-63
2021/12/16 05:27:37;;;;;;;181.12;95.45;;;;;;;-2.65;72.63;95488.66;1689077;85;21006;-56
2021/12/16 05:30:06;;;;;;;197.32;101.15;;;;;;;-2.73;72.27;95490.38;1689369;85;21543;-61
2021/12/16 05:32:33;;;;;;;210.78;103.35;;;;;;;-2.79;72.07;95483.69;1689813;85;21079;-58
2021/12/16 05:35:01;;;;;;;210.32;110.37;;;;;;;-2.92;71.93;95475.45;1690213;85;21094;-63
2021/12/16 05:37:28;;;;;;;235.23;113.83;;;;;;;-3.02;71.74;95479.97;1695659;83;21074;-56
2021/12/16 05:39:57;;;;;;;249.90;114.85;;;;;;;-3.16;72.00;95490.91;1670537;83;20965;-64
2021/12/16 05:42:41;;;;;;;205.03;102.30;;;;;;;-3.25;72.15;95478.95;1665104;83;21029;-63
2021/12/16 05:45:09;;;;;;;184.32;92.65;;;;;;;-3.34;72.02;95476.18;1679204;83;21036;-58
2021/12/16 05:47:38;;;;;;;223.70;117.57;;;;;;;-3.44;72.06;95468.03;1709073;83;21068;-57
2021/12/16 05:50:08;;;;;;;208.40;104.95;;;;;;;-3.52;72.64;95467.62;1670138;84;21167;-58
2021/12/16 05:52:37;;;;;;;194.67;97.35;;;;;;;-3.37;73.49;95466.91;1705774;83;20961;-57
2021/12/16 05:55:09;;;;;;;199.12;109.63;;;;;;;-3.21;73.18;95466.37;1676395;83;21081;-60
2021/12/16 05:57:38;;;;;;;199.07;100.00;;;;;;;-3.14;73.33;95448.30;1660969;83;21061;-59
2021/12/16 06:00:11;;;;;;;182.95;96.80;;;;;;;-2.97;73.83;95455.52;1682554;84;21067;-59
2021/12/16 06:02:42;;;;;;;181.50;95.85;;;;;;;-2.68;74.07;95444.34;1692503;83;20996;-58
2021/12/16 06:05:13;;;;;;;167.70;90.65;;;;;;;-2.38;73.93;95446.84;1686366;83;21752;-59
2021/12/16 06:07:43;;;;;;;141.55;79.10;;;;;;;-2.06;73.80;95451.63;1664191;84;21034;-58
2021/12/16 06:10:28;;;;;;;156.40;87.33;;;;;;;-1.79;73.29;95447.45;1689967;85;21110;-60
2021/12/16 06:12:41;;;;;;;144.80;81.08;;;;;;;-1.55;73.18;95439.90;1663398;85;21071;-57
2021/12/16 06:15:38;;;;;;;159.80;87.10;;;;;;;-1.34;72.38;95440.34;1687244;85;21536;-58
2021/12/16 06:28:37;;;;;;;184.00;98.95;;;;;;;-1.35;70.93;95443.41;1634078;84;21194;-58
2021/12/16 06:31:04;;;;;;;186.75;96.75;;;;;;;-1.47;70.94;95446.99;1668928;83;21026;-65
2021/12/16 06:33:31;;;;;;;169.87;99.17;;;;;;;-1.62;70.96;95447.85;1664621;83;21551;-57
2021/12/16 06:35:58;;;;;;;159.97;94.72;;;;;;;-1.75;71.59;95453.14;1700701;83;21657;-66
2021/12/16 06:38:25;;;;;;;215.22;122.30;;;;;;;-1.72;71.92;95456.48;1672742;82;21606;-59
2021/12/16 06:40:57;;;;;;;254.47;134.03;;;;;;;-1.69;71.82;95459.81;1668810;82;22357;-64
2021/12/16 06:43:26;;;;;;;299.67;154.87;;;;;;;-1.65;71.94;95468.77;1685007;83;21585;-58
2021/12/16 06:45:56;;;;;;;332.65;168.20;;;;;;;-1.55;72.07;95476.87;1688304;83;22210;-59
2021/12/16 06:48:29;;;;;;;314.23;160.45;;;;;;;-1.52;72.09;95481.59;1674227;84;21128;-64
2021/12/16 06:51:00;;;;;;;309.48;159.30;;;;;;;-1.42;72.11;95478.31;1693536;83;21056;-57
2021/12/16 06:53:33;;;;;;;346.25;177.00;;;;;;;-1.23;72.33;95480.48;1702046;83;21245;-64
2021/12/16 06:56:05;;;;;;;398.70;197.80;;;;;;;-1.09;71.64;95486.73;1700973;83;21044;-59
2021/12/16 06:58:38;;;;;;;356.38;173.72;;;;;;;-1.04;71.77;95496.68;1651465;84;21126;-59
2021/12/16 07:01:29;;;;;;;;;;;;;;;;;;;;;
2021/12/16 07:03:47;;;;;;;281.25;146.13;;;;;;;-0.88;71.51;95520.91;1664082;83;21088;-73
2021/12/16 07:06:24;;;;;;;306.77;166.70;;;;;;;-0.88;71.16;95523.60;1677640;83;21934;-64
2021/12/16 07:08:56;;;;;;;291.80;154.80;;;;;;;-0.88;71.53;95524.95;1684131;82;21038;-73
2021/12/16 07:11:24;;;;;;;309.07;158.87;;;;;;;-0.79;71.59;95524.19;1681034;82;21096;-68
2021/12/16 07:14:01;;;;;;;319.37;160.88;;;;;;;-0.66;71.82;95506.11;1678602;82;21006;-73
2021/12/16 07:16:27;;;;;;;371.10;189.65;;;;;;;-0.61;71.46;95508.52;1684261;83;21096;-70
2021/12/16 07:18:55;;;;;;;285.77;149.23;;;;;;;-0.61;71.72;95502.34;1667583;83;21045;-72
2021/12/16 07:21:23;;;;;;;252.38;134.72;;;;;;;-0.64;71.77;95506.53;1675502;82;21065;-69
2021/12/16 07:23:51;;;;;;;175.53;97.40;;;;;;;-0.53;72.20;95501.33;1675616;82;21143;-71
2021/12/16 07:26:17;;;;;;;133.80;71.20;;;;;;;-0.42;72.22;95496.91;1673851;83;21086;-71
2021/12/16 07:28:44;;;;;;;114.17;66.28;;;;;;;-0.34;72.36;95502.63;1647665;83;21006;-69
2021/12/16 07:31:11;;;;;;;151.68;85.70;;;;;;;-0.28;72.26;95499.28;1652679;83;21138;-62
2021/12/16 07:33:38;;;;;;;208.87;115.57;;;;;;;-0.19;72.34;95499.81;1674422;83;21024;-64
2021/12/16 07:36:07;;;;;;;265.45;147.17;;;;;;;-0.11;71.88;95500.72;1643773;82;21050;-72
2021/12/16 07:38:35;;;;;;;261.45;148.75;;;;;;;-0.20;71.54;95502.89;1664424;83;21068;-69
2021/12/16 07:41:01;;;;;;;270.95;149.25;;;;;;;-0.17;71.43;95500.26;1683184;83;21109;-69
2021/12/16 07:43:53;;;;;;;314.10;186.22;;;;;;;-0.10;71.14;95500.92;1680249;83;21292;-66
2021/12/16 07:46:10;;;;;;;267.60;153.62;;;;;;;0.00;71.52;95504.59;1674132;82;21430;-68
2021/12/16 07:48:39;;;;;;;226.67;130.95;;;;;;;0.17;71.23;95493.84;1684758;82;21088;-63
2021/12/16 07:51:10;;;;;;;213.92;128.42;;;;;;;0.14;70.99;95491.31;1681725;83;22168;-68
2021/12/16 07:53:37;;;;;;;220.37;131.70;;;;;;;0.07;71.18;95491.17;1677445;83;21646;-62
2021/12/16 07:56:06;;;;;;;240.30;145.60;;;;;;;0.02;71.45;95503.66;1667736;83;21127;-61
2021/12/16 07:58:33;;;;;;;242.62;138.52;;;;;;;0.15;71.85;95492.87;1664665;83;21025;-68
2021/12/16 08:01:00;;;;;;;197.13;114.97;;;;;;;0.32;71.52;95494.27;1695263;82;21050;-66
2021/12/16 08:03:34;;;;;;;201.42;120.55;;;;;;;0.51;71.01;95501.73;1691833;82;21013;-70
2021/12/16 08:05:58;;;;;;;215.57;130.70;;;;;;;0.62;70.44;95498.59;1690216;82;21061;-70
2021/12/16 08:08:26;;;;;;;218.97;130.30;;;;;;;0.68;70.60;95499.85;1684062;82;21115;-69
2021/12/16 08:10:55;;;;;;;232.18;139.80;;;;;;;0.76;70.87;95498.80;1696006;81;21983;-66
2021/12/16 08:13:27;;;;;;;203.52;121.07;;;;;;;0.86;71.00;95499.52;1680133;82;21600;-58
2021/12/16 08:15:55;;;;;;;248.30;139.10;;;;;;;1.01;70.70;95501.27;1700044;82;21105;-68
2021/12/16 08:18:24;;;;;;;245.22;142.37;;;;;;;1.11;70.62;95502.55;1680245;83;21276;-66
2021/12/16 08:20:51;;;;;;;196.12;117.65;;;;;;;1.22;70.35;95498.81;1685621;82;21160;-71
2021/12/16 08:23:25;;;;;;;172.32;103.02;;;;;;;1.32;69.99;95502.21;1695847;82;21102;-60
2021/12/16 08:25:52;;;;;;;217.93;133.70;;;;;;;1.48;69.25;95502.02;1667893;83;21064;-68
2021/12/16 08:28:21;;;;;;;204.23;120.82;;;;;;;1.51;68.91;95507.46;1680424;82;21002;-65
2021/12/16 08:30:49;;;;;;;193.13;116.95;;;;;;;1.40;69.05;95513.36;1682111;82;21012;-67
2021/12/16 08:33:19;;;;;;;191.82;118.37;;;;;;;1.33;69.29;95517.32;1697243;82;21192;-66
2021/12/16 08:35:50;;;;;;;166.80;105.17;;;;;;;1.32;69.78;95521.19;1682362;82;21515;-66
2021/12/16 08:38:22;;;;;;;161.68;95.90;;;;;;;1.40;69.93;95518.78;1676251;83;21134;-61
2021/12/16 08:40:54;;;;;;;134.78;82.55;;;;;;;1.49;69.70;95517.90;1703637;83;21093;-66
2021/12/16 08:43:23;;;;;;;123.85;75.12;;;;;;;1.52;69.80;95517.16;1664575;82;21404;-65
2021/12/16 08:45:50;;;;;;;101.85;64.25;;;;;;;1.71;69.59;95518.33;1685806;82;21339;-68
2021/12/16 08:48:21;;;;;;;106.63;64.97;;;;;;;1.87;69.13;95518.88;1688710;82;21111;-65
2021/12/16 08:50:49;;;;;;;102.87;62.73;;;;;;;2.05;68.77;95526.61;1658298;83;21029;-63
2021/12/16 08:53:17;;;;;;;82.53;53.00;;;;;;;2.18;68.27;95520.53;1696617;83;21119;-69
2021/12/16 08:55:44;;;;;;;68.90;43.92;;;;;;;2.17;67.95;95525.75;1664168;83;21774;-70
2021/12/16 08:58:11;;;;;;;75.67;49.20;;;;;;;2.18;67.67;95521.88;1659882;83;21172;-69
2021/12/16 09:00:56;;;;;;;66.40;42.93;;;;;;;2.13;67.69;95521.47;1670791;83;21098;-64
2021/12/16 09:03:27;;;;;;;70.83;46.77;;;;;;;2.13;67.70;95518.16;1693457;83;21083;-65
2021/12/16 09:05:54;;;;;;;144.97;84.92;;;;;;;2.16;67.25;95518.00;1673046;83;21135;-63
2021/12/16 09:08:21;;;;;;;129.70;79.80;;;;;;;2.14;67.35;95519.72;1674200;83;21297;-63
2021/12/16 09:10:47;;;;;;;112.90;74.45;;;;;;;2.19;67.30;95517.25;1590271;86;21160;-63
2021/12/16 09:13:17;;;;;;;111.55;69.75;;;;;;;2.26;67.26;95510.52;1635129;84;20936;-68
2021/12/16 09:15:50;;;;;;;112.32;71.67;;;;;;;2.34;66.95;95499.34;1645999;84;21150;-63
2021/12/16 09:18:28;;;;;;;114.22;72.92;;;;;;;2.36;66.92;95497.02;1660953;84;21426;-67
2021/12/16 09:20:59;;;;;;;140.07;90.38;;;;;;;2.32;66.87;95485.95;1672901;83;21109;-60
2021/12/16 09:23:27;;;;;;;137.28;87.57;;;;;;;2.27;66.95;95486.28;1691659;83;21912;-65
2021/12/16 09:25:57;;;;;;;95.65;61.55;;;;;;;2.33;67.10;95487.52;1662706;82;21165;-63
2021/12/16 09:28:27;;;;;;;71.82;46.60;;;;;;;2.35;66.53;95489.27;1689029;82;22052;-66
2021/12/16 09:30:56;;;;;;;78.95;50.43;;;;;;;2.25;66.31;95481.25;1691128;82;21061;-65
2021/12/16 09:33:26;;;;;;;80.87;53.60;;;;;;;2.15;66.57;95475.73;1646853;83;21119;-60
2021/12/16 09:35:58;;;;;;;89.15;56.45;;;;;;;2.15;67.03;95471.67;1681295;82;21097;-66
2021/12/16 09:38:27;;;;;;;85.22;56.05;;;;;;;2.16;67.14;95465.08;1676512;83;20997;-62
2021/12/16 09:40:56;;;;;;;90.05;56.73;;;;;;;2.16;67.04;95462.37;1684072;83;21080;-66
2021/12/16 09:43:34;;;;;;;93.72;60.80;;;;;;;2.12;67.36;95462.92;1675701;83;21150;-61
2021/12/16 09:46:05;;;;;;;86.60;55.33;;;;;;;2.12;67.18;95456.14;1668796;83;21460;-66
2021/12/16 09:48:35;;;;;;;100.25;65.75;;;;;;;2.05;67.36;95448.72;1696329;83;21131;-60
2021/12/16 09:51:04;;;;;;;94.37;62.93;;;;;;;2.04;67.65;95449.08;1673477;83;21103;-63
2021/12/16 09:53:32;;;;;;;124.80;77.60;;;;;;;2.15;67.62;95448.59;1692752;83;21431;-67
2021/12/16 09:56:04;;;;;;;121.70;77.25;;;;;;;2.28;68.04;95449.27;1689860;83;21009;-64
2021/12/16 09:58:36;;;;;;;130.63;83.80;;;;;;;2.49;68.04;95445.34;1692986;83;21060;-64
2021/12/16 10:01:03;;;;;;;117.40;75.45;;;;;;;2.67;67.91;95444.11;1683826;83;21941;-64
2021/12/16 10:03:32;;;;;;;108.52;69.62;;;;;;;2.81;67.48;95436.01;1665185;83;21101;-63
2021/12/16 10:06:04;;;;;;;109.97;74.67;;;;;;;2.98;67.01;95435.31;1665169;83;21064;-67
2021/12/16 10:08:31;;;;;;;115.57;74.13;;;;;;;3.14;66.40;95428.98;1688986;83;21146;-67
2021/12/16 10:10:58;;;;;;;96.57;63.45;;;;;;;3.21;65.79;95429.02;1669523;83;21043;-66
2021/12/16 10:13:42;;;;;;;101.25;64.87;;;;;;;3.28;65.84;95425.72;1678535;82;21138;-64
2021/12/16 10:18:31;;;;;;;84.00;54.90;;;;;;;3.28;66.00;95419.52;1668967;83;21042;-64
2021/12/16 10:21:02;;;;;;;85.07;54.93;;;;;;;3.35;65.41;95423.04;1685299;82;21134;-62
2021/12/16 10:23:40;;;;;;;75.97;49.70;;;;;;;3.30;64.95;95411.75;1694055;82;21108;-64
2021/12/16 10:26:16;;;;;;;62.75;40.78;;;;;;;3.26;64.91;95406.89;1692784;82;21418;-66
2021/12/16 10:28:49;;;;;;;69.12;41.92;;;;;;;3.31;64.79;95403.78;1686802;83;21030;-62
2021/12/16 10:31:24;;;;;;;67.17;41.70;;;;;;;3.35;64.77;95408.65;1689808;82;21081;-63
2021/12/16 10:33:58;;;;;;;62.20;41.20;;;;;;;3.28;64.71;95397.77;1675661;83;21068;-62
2021/12/16 10:36:38;;;;;;;58.02;38.63;;;;;;;3.22;65.19;95395.23;1684393;82;21117;-61
2021/12/16 10:39:16;;;;;;;63.78;41.08;;;;;;;3.24;65.30;95393.67;1647510;83;21088;-63
2021/12/16 10:41:49;;;;;;;58.00;38.95;;;;;;;3.24;65.32;95389.59;1681767;83;21146;-69
2021/12/16 10:44:27;;;;;;;65.45;44.38;;;;;;;3.23;65.07;95383.20;1680503;83;21807;-62
2021/12/16 10:47:13;;;;;;;71.28;46.05;;;;;;;3.17;65.23;95388.22;1684397;83;20991;-68
2021/12/16 10:49:51;;;;;;;73.62;44.85;;;;;;;3.21;65.49;95398.52;1676032;82;21067;-71
2021/12/16 10:52:26;;;;;;;69.65;45.85;;;;;;;3.32;65.55;95384.38;1687149;82;21202;-71
2021/12/16 10:54:55;;;;;;;64.72;42.75;;;;;;;3.46;65.60;95389.06;1645968;83;21037;-72
2021/12/16 10:57:28;;;;;;;86.90;54.93;;;;;;;3.61;65.46;95389.48;1682306;83;22189;-66
2021/12/16 11:00:03;;;;;;;141.47;71.35;;;;;;;3.60;65.72;95383.05;1649065;84;22088;-68
2021/12/16 11:02:36;;;;;;;146.15;75.92;;;;;;;3.69;65.61;95380.75;1672997;83;21027;-66
2021/12/16 11:05:17;;;;;;;131.97;68.83;;;;;;;3.83;65.47;95376.08;1677050;82;21142;-73
2021/12/16 11:07:48;;;;;;;159.18;84.20;;;;;;;3.90;65.40;95375.31;1679196;82;21089;-66
2021/12/16 11:10:29;;;;;;;138.35;77.37;;;;;;;3.94;65.29;95371.43;1685413;82;21535;-69
2021/12/16 11:13:10;;;;;;;119.60;72.53;;;;;;;3.98;65.13;95365.39;1679189;82;21422;-69
2021/12/16 11:15:43;;;;;;;130.47;77.20;;;;;;;4.01;65.08;95370.62;1671427;83;21177;-66
2021/12/16 11:18:13;;;;;;;119.33;65.47;;;;;;;3.96;65.50;95366.37;1681828;83;21093;-63
2021/12/16 11:20:56;;;;;;;124.00;76.02;;;;;;;4.04;65.38;95365.19;1686193;83;21065;-61
2021/12/16 11:23:34;;;;;;;84.40;52.15;;;;;;;4.00;65.15;95363.05;1656480;83;21209;-62
2021/12/16 11:26:05;;;;;;;63.85;44.03;;;;;;;3.99;64.91;95356.06;1673694;83;21093;-62
2021/12/16 11:28:38;;;;;;;68.95;47.13;;;;;;;3.86;64.73;95356.25;1658822;83;21061;-64
2021/12/16 11:31:10;;;;;;;75.05;51.13;;;;;;;3.70;65.26;95343.61;1684317;81;21120;-62
2021/12/16 11:33:44;;;;;;;72.82;49.95;;;;;;;3.58;65.23;95340.50;1677110;83;21105;-61
2021/12/16 11:36:17;;;;;;;58.23;38.85;;;;;;;3.43;65.81;95346.33;1656320;83;21065;-62
2021/12/16 11:39:09;;;;;;;54.75;36.80;;;;;;;3.36;65.94;95344.94;1683448;83;21100;-63
2021/12/16 11:41:41;;;;;;;;;;;;;;;3.28;66.45;95336.00;1645882;83;21113;-62
2021/12/16 11:44:24;;;;;;;54.95;36.15;;;;;;;3.35;66.74;95336.02;1682394;82;21175;-63
2021/12/16 11:47:08;;;;;;;60.78;38.48;;;;;;;3.40;66.57;95341.67;1689504;83;21096;-61
2021/12/16 11:49:42;;;;;;;58.65;39.27;;;;;;;3.39;66.60;95340.11;1690914;83;21506;-59
2021/12/16 11:52:18;;;;;;;56.13;34.67;;;;;;;3.40;66.85;95333.52;1686847;83;21056;-61
2021/12/16 11:55:00;;;;;;;58.02;38.30;;;;;;;3.48;66.62;95322.83;1677420;83;21083;-62
2021/12/16 11:57:36;;;;;;;;;;;;;;;3.49;66.65;95321.84;1692440;83;21812;-60
2021/12/16 12:00:19;;;;;;;68.35;43.15;;;;;;;3.54;66.95;95319.33;1674050;83;20180;-63
2021/12/16 12:03:07;;;;;;;84.87;49.53;;;;;;;3.51;66.81;95307.28;1687923;83;21033;-63
2021/12/16 12:05:42;;;;;;;76.00;47.10;;;;;;;3.54;66.95;95307.86;1656748;83;22074;-65
2021/12/16 12:08:20;;;;;;;93.87;55.05;;;;;;;3.62;66.89;95318.16;1673748;83;21099;-63
2021/12/16 12:11:02;;;;;;;149.42;82.40;;;;;;;3.61;66.87;95311.95;1675903;83;21054;-63
2021/12/16 12:13:35;;;;;;;140.85;83.40;;;;;;;3.64;67.23;95307.09;1687018;83;21086;-59
2021/12/16 12:16:07;;;;;;;131.90;77.58;;;;;;;3.64;67.60;95312.53;1695042;83;21024;-62
2021/12/16 12:18:52;;;;;;;123.85;77.12;;;;;;;3.62;67.94;95315.44;1676364;83;21019;-62
2021/12/16 12:21:44;;;;;;;97.53;62.48;;;;;;;3.54;68.24;95310.58;1695483;82;21027;-61
2021/12/16 12:24:24;;;;;;;96.28;59.60;;;;;;;3.51;68.19;95311.36;1674464;83;21129;-62
2021/12/16 12:27:03;;;;;;;108.47;67.03;;;;;;;3.36;68.40;95308.23;1662866;83;21640;-62
2021/12/16 12:29:35;;;;;;;119.10;70.37;;;;;;;3.24;68.89;95314.06;1672009;83;20998;-64
2021/12/16 12:32:08;;;;;;;120.67;71.90;;;;;;;3.16;69.25;95311.91;1692975;83;21169;-65
2021/12/16 12:34:37;;;;;;;96.00;59.03;;;;;;;3.09;69.51;95314.60;1685373;83;21162;-63
2021/12/16 12:37:08;;;;;;;109.22;66.67;;;;;;;3.09;69.76;95322.75;1681501;83;21167;-68
2021/12/16 12:39:42;;;;;;;144.22;87.45;;;;;;;3.06;70.27;95320.05;1683997;82;21075;-65
2021/12/16 12:42:13;;;;;;;145.45;86.40;;;;;;;3.13;70.52;95317.34;1688978;82;21480;-66
2021/12/16 12:44:40;;;;;;;141.60;89.30;;;;;;;3.19;70.43;95315.78;1688065;82;21030;-61
2021/12/16 12:47:23;;;;;;;126.67;80.77;;;;;;;3.11;70.47;95318.31;1682308;82;21142;-65
2021/12/16 12:49:51;;;;;;;144.02;84.92;;;;;;;3.06;70.74;95318.69;1680839;83;21116;-59
2021/12/16 12:52:23;;;;;;;119.72;72.00;;;;;;;2.98;70.97;95310.31;1661419;83;21590;-60
2021/12/16 12:55:10;;;;;;;118.13;72.87;;;;;;;2.91;71.28;95311.06;1680454;82;21064;-61
2021/12/16 12:57:38;;;;;;;122.55;77.08;;;;;;;2.84;71.51;95307.58;1686223;82;21005;-59
2021/12/16 13:00:26;;;;;;;125.60;80.05;;;;;;;2.79;71.72;95305.22;1670995;82;21116;-66
2021/12/16 13:03:00;;;;;;;125.65;76.30;;;;;;;2.78;72.02;95304.45;1688084;83;21117;-62
2021/12/16 13:05:27;;;;;;;109.92;69.05;;;;;;;2.83;72.37;95300.59;1693250;82;21910;-63
2021/12/16 13:08:00;;;;;;;100.33;62.45;;;;;;;2.93;72.33;95298.47;1685463;82;21040;-66
2021/12/16 13:10:44;;;;;;;104.80;62.93;;;;;;;2.98;71.85;95302.16;1677759;82;21019;-65
2021/12/16 13:13:44;;;;;;;97.97;58.68;;;;;;;2.89;71.92;95290.89;1680473;83;21080;-66
2021/12/16 13:15:52;;;;;;;109.75;71.37;;;;;;;2.81;72.12;95289.30;1660097;83;21578;-71
2021/12/16 13:29:53;;;;;;;171.60;84.42;;;;;;;2.89;72.92;95277.31;1698447;82;21138;-62
2021/12/16 13:32:16;;;;;;;155.05;82.08;;;;;;;2.92;72.65;95273.82;1690719;83;21063;-61
2021/12/16 13:34:57;;;;;;;136.90;74.47;;;;;;;2.87;72.59;95279.64;1691859;82;21118;-67
2021/12/16 13:37:33;;;;;;;110.55;60.80;;;;;;;2.86;72.94;95272.65;1687064;83;21081;-66
2021/12/16 13:40:28;;;;;;;93.15;58.13;;;;;;;2.87;72.68;95275.56;1677634;83;21097;-61
2021/12/16 13:43:02;;;;;;;127.78;73.37;;;;;;;2.78;72.66;95281.93;1642033;85;21071;-68
2021/12/16 13:45:44;;;;;;;138.52;75.62;;;;;;;2.72;73.12;95272.61;1632940;86;20980;-61
2021/12/16 13:48:39;;;;;;;138.50;78.78;;;;;;;2.78;73.39;95273.78;1679938;83;22011;-59
2021/12/16 14:05:27;;;;;;;95.10;60.30;;;;;;;2.62;73.52;95287.71;1649013;86;21071;-60
2021/12/16 14:08:31;;;;;;;99.87;62.35;;;;;;;2.54;73.90;95289.43;1690985;83;21096;-61
2021/12/16 14:11:41;;;;;;;104.23;64.53;;;;;;;2.51;74.43;95284.77;1685736;83;21181;-63
2021/12/16 14:14:10;;;;;;;108.75;68.17;;;;;;;2.55;74.31;95288.27;1676487;82;21027;-65
2021/12/16 14:17:06;;;;;;;105.60;61.80;;;;;;;2.52;74.46;95289.03;1685229;82;21514;-56
2021/12/16 14:25:33;;;;;;;221.32;105.27;;;;;;;2.56;74.94;95277.03;1654533;83;21130;-59
2021/12/16 14:42:38;;;;;;;539.05;180.97;;;;;;;2.67;74.99;95287.93;1652611;84;21090;-64
2021/12/16 14:45:17;;;;;;;486.58;167.25;;;;;;;2.63;74.76;95287.91;1678830;83;21074;-58
2021/12/16 14:48:04;;;;;;;319.63;129.63;;;;;;;2.54;75.07;95282.05;1635127;85;21102;-57